Time;durP1;ratioP1;P1;durP2;ratioP2;P2;SDS_P1;SDS_P2;PMS_P1;PMS_P2;Temp;Humidity;BMP_temperature;BMP_pressure;BME280_temperature;BME280_humidity;BME280_pressure;Samples;Min_cycle;Max_cycle;Signal;HPM_P1;HPM_P2
2022/03/23 00:04:33;;;;;;;6.15;1.92;;;;;;;;;;10283128;28;20062;-72
2022/03/23 00:09:33;;;;;;;6.55;2.10;;;;;;;;;;10299399;28;20540;-72
2022/03/23 00:14:34;;;;;;;6.80;1.60;;;;;;;;;;10282662;28;20117;-71
2022/03/23 00:19:34;;;;;;;3.17;2.38;;;;;;;;;;10282747;28;20023;-75
2022/03/23 00:24:34;;;;;;;3.53;1.70;;;;;;;;;;10282556;28;20030;-71
2022/03/23 00:29:35;;;;;;;4.30;1.50;;;;;;;;;;10285755;28;20095;-71
2022/03/23 00:34:35;;;;;;;6.18;1.85;;;;;;;;;;10290638;28;20034;-74
2022/03/23 00:39:35;;;;;;;5.85;2.03;;;;;;;;;;10291703;28;20038;-77
2022/03/23 00:44:36;;;;;;;6.20;2.10;;;;;;;;;;10289939;28;20034;-71
2022/03/23 00:49:37;;;;;;;5.97;2.53;;;;;;;;;;10290584;28;20404;-72
2022/03/23 00:54:37;;;;;;;11.27;2.47;;;;;;;;;;10291165;28;20546;-71
2022/03/23 00:59:37;;;;;;;9.70;2.05;;;;;;;;;;10291229;28;20037;-72
2022/03/23 01:04:38;;;;;;;3.10;2.05;;;;;;;;;;10289038;28;20062;-71
2022/03/23 01:09:38;;;;;;;11.80;2.20;;;;;;;;;;10290708;28;20041;-75
2022/03/23 01:14:38;;;;;;;4.65;2.38;;;;;;;;;;10291346;28;20123;-72
2022/03/23 01:19:39;;;;;;;13.23;2.53;;;;;;;;;;10288899;28;20041;-70
2022/03/23 01:24:39;;;;;;;2.70;1.47;;;;;;;;;;10288791;28;20220;-74
2022/03/23 01:29:39;;;;;;;6.68;2.05;;;;;;;;;;10289067;28;20038;-71
2022/03/23 01:34:40;;;;;;;5.37;2.40;;;;;;;;;;10288081;28;20034;-72
2022/03/23 01:39:40;;;;;;;4.80;2.23;;;;;;;;;;10288488;28;20481;-71
2022/03/23 01:44:40;;;;;;;14.70;3.38;;;;;;;;;;10304190;28;20496;-73
2022/03/23 01:49:42;;;;;;;4.70;2.45;;;;;;;;;;10288555;28;20042;-73
2022/03/23 01:54:43;;;;;;;8.50;3.40;;;;;;;;;;10303676;28;20030;-71
2022/03/23 01:59:44;;;;;;;4.95;2.50;;;;;;;;;;10287821;28;20023;-71
2022/03/23 02:04:44;;;;;;;8.02;2.80;;;;;;;;;;10303498;28;20063;-71
2022/03/23 02:09:44;;;;;;;4.93;3.57;;;;;;;;;;10286891;28;20484;-70
2022/03/23 02:14:46;;;;;;;9.55;3.03;;;;;;;;;;10286831;28;20078;-70
2022/03/23 02:19:47;;;;;;;6.85;3.08;;;;;;;;;;10286574;28;20037;-73
2022/03/23 02:24:48;;;;;;;6.47;2.37;;;;;;;;;;10286385;28;20023;-72
2022/03/23 02:29:48;;;;;;;7.78;2.80;;;;;;;;;;10286451;28;20027;-71
2022/03/23 02:34:48;;;;;;;6.60;3.27;;;;;;;;;;10286236;28;20484;-72
2022/03/23 02:39:49;;;;;;;5.40;2.40;;;;;;;;;;10285711;28;20106;-72
2022/03/23 02:44:49;;;;;;;4.72;3.00;;;;;;;;;;10285660;28;20077;-71
2022/03/23 02:49:49;;;;;;;9.18;3.30;;;;;;;;;;10287004;28;20050;-71
2022/03/23 03:05:34;;;;;;;7.10;2.40;;;;;;;;;;10286291;28;20050;-71
2022/03/23 03:10:34;;;;;;;3.73;2.67;;;;;;;;;;10284749;28;20027;-70
2022/03/23 03:15:34;;;;;;;7.32;2.42;;;;;;;;;;10284512;28;20515;-72
2022/03/23 03:20:35;;;;;;;9.10;2.30;;;;;;;;;;10284552;28;20425;-72
2022/03/23 03:25:35;;;;;;;4.73;2.33;;;;;;;;;;10300359;28;20023;-73
2022/03/23 03:30:35;;;;;;;5.47;2.80;;;;;;;;;;10284057;28;20025;-73
2022/03/23 03:35:36;;;;;;;7.63;3.30;;;;;;;;;;10284020;28;20282;-71
2022/03/23 03:40:36;;;;;;;7.10;2.20;;;;;;;;;;10283698;28;20106;-72
2022/03/23 03:45:36;;;;;;;4.47;2.17;;;;;;;;;;10283354;28;20485;-72
2022/03/23 03:50:36;;;;;;;7.88;2.55;;;;;;;;;;10283587;28;20082;-76
2022/03/23 03:55:37;;;;;;;6.63;1.88;;;;;;;;;;10283220;28;20027;-72
2022/03/23 04:00:38;;;;;;;7.90;2.60;;;;;;;;;;10284260;28;20019;-71
2022/03/23 04:05:38;;;;;;;3.17;1.90;;;;;;;;;;10283644;28;20055;-71
2022/03/23 04:10:38;;;;;;;8.07;2.50;;;;;;;;;;10299347;28;20034;-71
2022/03/23 04:15:39;;;;;;;10.98;3.42;;;;;;;;;;10284089;28;20027;-70
2022/03/23 04:20:39;;;;;;;4.72;2.22;;;;;;;;;;10284596;28;20019;-70
2022/03/23 04:25:39;;;;;;;7.85;2.95;;;;;;;;;;10282584;28;20516;-70
2022/03/23 04:30:41;;;;;;;12.35;3.00;;;;;;;;;;10287148;28;20034;-71
2022/03/23 04:35:41;;;;;;;4.60;2.42;;;;;;;;;;10322667;28;20027;-72
2022/03/23 04:40:42;;;;;;;7.07;2.55;;;;;;;;;;10321737;28;20400;-73
2022/03/23 04:45:42;;;;;;;4.97;2.92;;;;;;;;;;10299359;28;20027;-76
2022/03/23 04:50:42;;;;;;;7.13;3.60;;;;;;;;;;10311507;28;20069;-74
2022/03/23 04:55:43;;;;;;;9.15;3.58;;;;;;;;;;10295256;28;20033;-75
2022/03/23 05:00:43;;;;;;;6.77;3.50;;;;;;;;;;10281665;28;20575;-76
2022/03/23 05:05:44;;;;;;;13.70;3.60;;;;;;;;;;10297729;28;20143;-74
2022/03/23 05:10:44;;;;;;;7.93;3.28;;;;;;;;;;10282017;28;20066;-73
2022/03/23 05:15:44;;;;;;;11.13;2.97;;;;;;;;;;10285181;28;20426;-74
2022/03/23 05:20:45;;;;;;;9.30;3.38;;;;;;;;;;10297472;28;20488;-77
2022/03/23 05:25:45;;;;;;;13.75;4.18;;;;;;;;;;10328380;28;20114;-73
2022/03/23 05:30:45;;;;;;;15.05;5.78;;;;;;;;;;10327686;28;20077;-72
2022/03/23 05:35:46;;;;;;;16.83;4.10;;;;;;;;;;10328414;28;20033;-75
2022/03/23 05:40:46;;;;;;;12.30;4.67;;;;;;;;;;10324861;28;20030;-72
2022/03/23 05:45:46;;;;;;;19.77;4.32;;;;;;;;;;10327435;28;20287;-77
2022/03/23 05:50:47;;;;;;;10.32;4.20;;;;;;;;;;10328779;28;20027;-76
2022/03/23 05:55:47;;;;;;;23.83;4.97;;;;;;;;;;10326661;28;20022;-72
2022/03/23 06:00:47;;;;;;;15.30;3.75;;;;;;;;;;10327919;28;20021;-72
2022/03/23 06:05:47;;;;;;;7.72;4.07;;;;;;;;;;10328222;28;20496;-75
2022/03/23 06:10:48;;;;;;;12.75;4.00;;;;;;;;;;10326118;28;20117;-72
2022/03/23 06:15:49;;;;;;;10.57;4.03;;;;;;;;;;10325895;28;20022;-76
2022/03/23 06:20:49;;;;;;;10.40;4.05;;;;;;;;;;10325553;28;20030;-74
2022/03/23 06:25:49;;;;;;;13.48;4.22;;;;;;;;;;10308909;28;20034;-79
2022/03/23 06:30:53;;;;;;;16.33;4.03;;;;;;;;;;10324956;28;20022;-72
2022/03/23 06:35:53;;;;;;;11.82;4.28;;;;;;;;;;10325124;28;20525;-73
2022/03/23 06:40:54;;;;;;;11.85;3.80;;;;;;;;;;10325125;28;20173;-73
2022/03/23 06:45:54;;;;;;;10.93;3.78;;;;;;;;;;10325733;28;20099;-76
2022/03/23 06:50:54;;;;;;;12.38;3.72;;;;;;;;;;10325584;28;20029;-75
2022/03/23 06:55:54;;;;;;;10.77;4.00;;;;;;;;;;10325808;28;20436;-73
2022/03/23 07:00:57;;;;;;;6.73;3.70;;;;;;;;;;10325448;28;20022;-74
2022/03/23 07:05:57;;;;;;;10.00;2.90;;;;;;;;;;10308646;28;20140;-76
2022/03/23 07:10:57;;;;;;;7.85;4.00;;;;;;;;;;10324062;28;20442;-74
2022/03/23 07:15:58;;;;;;;11.55;3.03;;;;;;;;;;10324189;28;20493;-75
2022/03/23 07:20:58;;;;;;;4.27;2.50;;;;;;;;;;10323386;28;20030;-77
2022/03/23 07:25:59;;;;;;;7.27;3.00;;;;;;;;;;10323818;28;20015;-74
2022/03/23 07:31:00;;;;;;;11.55;3.38;;;;;;;;;;10323522;28;20277;-74
2022/03/23 07:36:01;;;;;;;10.83;3.47;;;;;;;;;;10323396;28;20424;-74
2022/03/23 07:41:01;;;;;;;9.00;3.85;;;;;;;;;;10321927;28;20274;-75
2022/03/23 07:46:01;;;;;;;6.90;2.50;;;;;;;;;;10322309;28;20030;-73
2022/03/23 07:51:02;;;;;;;7.63;2.40;;;;;;;;;;10324158;28;20026;-72
2022/03/23 07:56:02;;;;;;;5.90;2.33;;;;;;;;;;10322683;28;20067;-72
2022/03/23 08:01:02;;;;;;;11.13;3.55;;;;;;;;;;10322252;28;20152;-72
2022/03/23 08:06:03;;;;;;;9.68;4.68;;;;;;;;;;10306459;28;20042;-74
2022/03/23 08:11:03;;;;;;;10.07;2.13;;;;;;;;;;10322765;28;20018;-78
2022/03/23 08:16:07;;;;;;;6.97;2.20;;;;;;;;;;10322872;28;20022;-75
2022/03/23 08:21:07;;;;;;;7.28;2.63;;;;;;;;;;10323314;28;20072;-74
2022/03/23 08:26:10;;;;;;;8.60;2.90;;;;;;;;;;10322191;28;20018;-72
2022/03/23 08:31:11;;;;;;;10.10;2.70;;;;;;;;;;10321501;28;20053;-74
2022/03/23 08:36:11;;;;;;;10.27;2.83;;;;;;;;;;10322148;28;20572;-73
2022/03/23 08:41:13;;;;;;;8.03;3.53;;;;;;;;;;10322059;28;20014;-77
2022/03/23 08:46:13;;;;;;;9.55;3.25;;;;;;;;;;10322632;28;20018;-75
2022/03/23 08:51:14;;;;;;;10.02;3.42;;;;;;;;;;10326063;28;20029;-74
2022/03/23 08:56:14;;;;;;;10.55;5.13;;;;;;;;;;10329754;28;20026;-73
2022/03/23 09:01:15;;;;;;;7.73;2.93;;;;;;;;;;10329346;28;20025;-73
2022/03/23 09:06:15;;;;;;;9.02;3.22;;;;;;;;;;10329224;28;20055;-73
2022/03/23 09:11:16;;;;;;;10.83;3.80;;;;;;;;;;10329164;28;20014;-74
2022/03/23 09:16:16;;;;;;;11.73;3.60;;;;;;;;;;10329305;28;20523;-74
2022/03/23 09:21:17;;;;;;;9.57;4.47;;;;;;;;;;10313099;28;20022;-78
2022/03/23 09:26:17;;;;;;;7.75;2.70;;;;;;;;;;10329218;28;20452;-81
2022/03/23 09:31:18;;;;;;;12.20;3.20;;;;;;;;;;10327661;28;20217;-74
2022/03/23 09:41:37;;;;;;;8.48;2.97;;;;;;;;;;10329620;28;20026;-75
2022/03/23 09:46:38;;;;;;;7.57;3.15;;;;;;;;;;10327675;28;20023;-73
2022/03/23 09:51:39;;;;;;;11.45;3.47;;;;;;;;;;10328572;28;20147;-72
2022/03/23 09:56:39;;;;;;;8.27;2.80;;;;;;;;;;10327455;28;20031;-76
2022/03/23 10:01:49;;;;;;;10.47;2.83;;;;;;;;;;10327709;28;20038;-79
2022/03/23 10:07:00;;;;;;;8.25;2.45;;;;;;;;;;10328555;28;20051;-78
2022/03/23 10:12:20;;;;;;;7.80;2.72;;;;;;;;;;10326395;28;20041;-72
2022/03/23 10:17:38;;;;;;;5.57;3.30;;;;;;;;;;10326681;28;20049;-72
2022/03/23 10:23:06;;;;;;;5.63;2.15;;;;;;;;;;10325323;28;20457;-78
2022/03/23 10:28:13;;;;;;;5.95;2.65;;;;;;;;;;10325156;28;20031;-73
2022/03/23 10:33:22;;;;;;;9.45;2.05;;;;;;;;;;10325978;28;20667;-73
2022/03/23 10:38:23;;;;;;;7.32;2.65;;;;;;;;;;10325841;28;20057;-72
2022/03/23 10:43:34;;;;;;;7.22;2.42;;;;;;;;;;10326936;28;20068;-74
2022/03/23 10:48:35;;;;;;;7.53;2.35;;;;;;;;;;10325137;28;20477;-74
2022/03/23 10:53:35;;;;;;;5.78;2.40;;;;;;;;;;10324825;28;20027;-73
2022/03/23 10:58:37;;;;;;;15.57;3.13;;;;;;;;;;10324971;28;20520;-75
2022/03/23 11:03:49;;;;;;;6.75;2.13;;;;;;;;;;10324778;28;20054;-78
2022/03/23 11:08:50;;;;;;;6.50;2.03;;;;;;;;;;10325770;28;20065;-71
2022/03/23 11:19:09;;;;;;;10.13;2.47;;;;;;;;;;10324997;28;20026;-72
2022/03/23 11:24:10;;;;;;;4.82;1.98;;;;;;;;;;10323390;28;20022;-74
2022/03/23 11:29:10;;;;;;;5.95;2.38;;;;;;;;;;10324769;28;20026;-73
2022/03/23 11:34:13;;;;;;;7.03;2.53;;;;;;;;;;10307107;28;20038;-76
2022/03/23 11:39:13;;;;;;;7.55;3.10;;;;;;;;;;10323227;28;20085;-74
2022/03/23 11:44:18;;;;;;;5.78;3.03;;;;;;;;;;10322700;28;20619;-76
2022/03/23 11:49:46;;;;;;;11.20;3.50;;;;;;;;;;10523941;27;20385;-75
2022/03/23 12:00:16;;;;;;;12.15;3.55;;;;;;;;;;10524369;28;20032;-72
2022/03/23 12:05:23;;;;;;;8.55;3.28;;;;;;;;;;10539171;28;20016;-75
2022/03/23 12:10:31;;;;;;;8.95;2.85;;;;;;;;;;10505605;28;20012;-74
2022/03/23 12:15:33;;;;;;;14.50;3.42;;;;;;;;;;10523130;28;20460;-73
2022/03/23 12:20:37;;;;;;;8.90;3.83;;;;;;;;;;10538480;28;20505;-73
2022/03/23 12:25:55;;;;;;;10.00;2.58;;;;;;;;;;10523509;28;20541;-78
2022/03/23 12:30:56;;;;;;;5.65;3.08;;;;;;;;;;10504270;28;20403;-73
2022/03/23 12:36:00;;;;;;;6.40;3.25;;;;;;;;;;10521140;28;20024;-75
2022/03/23 12:41:04;;;;;;;9.07;3.40;;;;;;;;;;10521061;28;20086;-74
2022/03/23 12:46:16;;;;;;;7.70;3.17;;;;;;;;;;10532944;28;20048;-76
2022/03/23 13:02:24;;;;;;;7.28;3.30;;;;;;;;;;10521232;28;20520;-76
2022/03/23 13:07:28;;;;;;;7.90;3.08;;;;;;;;;;10513278;28;20036;-72
2022/03/23 13:12:28;;;;;;;6.15;3.13;;;;;;;;;;10493914;28;20019;-79
2022/03/23 13:17:28;;;;;;;9.07;3.80;;;;;;;;;;10488347;28;20383;-73
2022/03/23 13:22:38;;;;;;;6.28;3.10;;;;;;;;;;10500586;28;20557;-70
2022/03/23 13:27:38;;;;;;;8.10;3.28;;;;;;;;;;10516030;28;20023;-69
2022/03/23 13:32:46;;;;;;;7.38;3.53;;;;;;;;;;10499893;28;20020;-73
2022/03/23 13:37:57;;;;;;;11.32;3.70;;;;;;;;;;10515389;28;20039;-76
2022/03/23 13:48:19;;;;;;;9.48;3.17;;;;;;;;;;10523241;28;20066;-70
2022/03/23 13:53:20;;;;;;;8.60;3.65;;;;;;;;;;10532684;28;20020;-75
2022/03/23 13:58:21;;;;;;;10.45;3.30;;;;;;;;;;10514614;28;20020;-71
2022/03/23 14:03:33;;;;;;;6.47;3.42;;;;;;;;;;10514740;28;20103;-71
2022/03/23 14:08:35;;;;;;;8.68;2.92;;;;;;;;;;10513142;28;20107;-71
2022/03/23 14:13:38;;;;;;;11.65;3.53;;;;;;;;;;10497668;28;20016;-69
2022/03/23 14:18:39;;;;;;;17.20;3.60;;;;;;;;;;10514105;28;20016;-71
2022/03/23 14:23:39;;;;;;;5.60;3.03;;;;;;;;;;10472304;28;20017;-70
2022/03/23 14:28:45;;;;;;;11.63;2.87;;;;;;;;;;10471985;28;20031;-72
2022/03/23 14:33:52;;;;;;;6.15;2.70;;;;;;;;;;10507441;28;20525;-75
2022/03/23 14:38:53;;;;;;;7.18;2.47;;;;;;;;;;10513221;28;20394;-71
2022/03/23 14:43:54;;;;;;;4.93;1.93;;;;;;;;;;10483406;28;20021;-73
2022/03/23 14:49:03;;;;;;;7.10;3.28;;;;;;;;;;10471104;28;20110;-70
2022/03/23 14:54:04;;;;;;;6.32;2.55;;;;;;;;;;10471035;28;20091;-73
2022/03/23 14:59:05;;;;;;;2.95;2.42;;;;;;;;;;10487910;28;20020;-70
2022/03/23 15:04:06;;;;;;;16.58;2.75;;;;;;;;;;10495003;28;20020;-70
2022/03/23 15:14:25;;;;;;;6.57;2.63;;;;;;;;;;10531382;28;20024;-70
2022/03/23 15:19:26;;;;;;;9.32;3.65;;;;;;;;;;10493394;28;20024;-74
2022/03/23 15:24:26;;;;;;;6.72;2.78;;;;;;;;;;10470624;28;20043;-75
2022/03/23 15:29:27;;;;;;;6.15;2.40;;;;;;;;;;10469288;28;20482;-70
2022/03/23 15:34:27;;;;;;;5.72;3.25;;;;;;;;;;10507067;28;20051;-71
2022/03/23 15:39:31;;;;;;;4.30;2.38;;;;;;;;;;10510946;28;20080;-71
2022/03/23 15:44:31;;;;;;;6.03;2.50;;;;;;;;;;10510963;28;20012;-73
2022/03/23 15:49:32;;;;;;;17.33;3.83;;;;;;;;;;10505734;28;20067;-71
2022/03/23 15:54:33;;;;;;;6.75;3.50;;;;;;;;;;10468690;28;20021;-72
2022/03/23 15:59:33;;;;;;;3.55;2.55;;;;;;;;;;10452344;28;20044;-74
2022/03/23 16:04:33;;;;;;;8.50;3.47;;;;;;;;;;10468754;28;20073;-71
2022/03/23 16:09:34;;;;;;;7.95;2.90;;;;;;;;;;10496002;28;20111;-71
2022/03/23 16:14:35;;;;;;;6.07;2.30;;;;;;;;;;10528094;28;20016;-71
2022/03/23 16:19:36;;;;;;;12.50;2.90;;;;;;;;;;10509987;28;20027;-72
2022/03/23 16:24:36;;;;;;;6.93;2.72;;;;;;;;;;10531722;28;20024;-71
2022/03/23 16:29:37;;;;;;;10.23;3.05;;;;;;;;;;10472285;28;20032;-73
2022/03/23 16:34:37;;;;;;;13.43;4.13;;;;;;;;;;10473121;28;20017;-70
2022/03/23 16:39:37;;;;;;;11.82;3.67;;;;;;;;;;10475525;28;20259;-73
2022/03/23 16:44:38;;;;;;;9.27;3.53;;;;;;;;;;10488414;28;20028;-73
2022/03/23 16:49:38;;;;;;;9.10;3.47;;;;;;;;;;10476036;28;20448;-71
2022/03/23 16:54:39;;;;;;;9.00;3.75;;;;;;;;;;10458944;28;20013;-72
2022/03/23 16:59:40;;;;;;;12.33;4.30;;;;;;;;;;10476354;28;20564;-72
2022/03/23 17:15:18;;;;;;;15.55;4.35;;;;;;;;;;10507427;28;20031;-75
2022/03/23 17:20:18;;;;;;;7.03;3.70;;;;;;;;;;10493885;28;20026;-70
2022/03/23 17:25:19;;;;;;;12.05;4.07;;;;;;;;;;10492354;28;20633;-71
2022/03/23 17:30:19;;;;;;;26.07;4.53;;;;;;;;;;10501495;28;20028;-70
2022/03/23 17:35:22;;;;;;;9.45;4.97;;;;;;;;;;10499685;28;20482;-74
2022/03/23 17:40:22;;;;;;;13.93;5.25;;;;;;;;;;10526154;28;20021;-70
2022/03/23 17:45:22;;;;;;;12.03;5.90;;;;;;;;;;10472958;28;20506;-75
2022/03/23 17:50:23;;;;;;;19.58;7.93;;;;;;;;;;10474162;28;20266;-75
2022/03/23 17:55:23;;;;;;;19.17;7.40;;;;;;;;;;10474219;28;20032;-73
2022/03/23 18:00:24;;;;;;;31.73;9.50;;;;;;;;;;10457000;28;20475;-68
2022/03/23 18:05:24;;;;;;;26.70;8.77;;;;;;;;;;10520421;28;20039;-70
2022/03/23 18:10:25;;;;;;;22.08;9.38;;;;;;;;;;10546798;28;20056;-70
2022/03/23 18:15:25;;;;;;;22.67;9.60;;;;;;;;;;10495387;28;20114;-71
2022/03/23 18:20:25;;;;;;;23.43;9.53;;;;;;;;;;10486586;28;20498;-71
2022/03/23 18:25:26;;;;;;;23.55;8.85;;;;;;;;;;10514276;28;20580;-70
2022/03/23 18:30:27;;;;;;;25.58;9.32;;;;;;;;;;10505027;28;20012;-71
2022/03/23 18:35:27;;;;;;;19.23;7.90;;;;;;;;;;10472011;28;20020;-71
2022/03/23 18:40:28;;;;;;;30.63;9.35;;;;;;;;;;10472594;28;20084;-71
2022/03/23 18:45:28;;;;;;;35.58;8.10;;;;;;;;;;10471157;28;20044;-71
2022/03/23 18:50:29;;;;;;;23.58;9.20;;;;;;;;;;10471508;28;20483;-72
2022/03/23 18:55:29;;;;;;;19.73;8.90;;;;;;;;;;10498781;28;20023;-71
2022/03/23 19:00:30;;;;;;;24.90;9.65;;;;;;;;;;10512966;28;20031;-69
2022/03/23 19:05:30;;;;;;;26.90;7.83;;;;;;;;;;10512672;28;20508;-72
2022/03/23 19:10:30;;;;;;;22.63;11.30;;;;;;;;;;10512758;28;20019;-71
2022/03/23 19:15:31;;;;;;;21.23;8.57;;;;;;;;;;10512903;28;20601;-72
2022/03/23 19:20:33;;;;;;;14.88;6.63;;;;;;;;;;10512756;28;20485;-73
2022/03/23 19:25:34;;;;;;;15.68;7.43;;;;;;;;;;10510043;28;20024;-73
2022/03/23 19:30:34;;;;;;;11.77;6.10;;;;;;;;;;10470323;28;20028;-70
2022/03/23 19:35:34;;;;;;;11.17;5.87;;;;;;;;;;10482351;28;20037;-70
2022/03/23 19:40:35;;;;;;;13.37;5.10;;;;;;;;;;10511924;28;20028;-74
2022/03/23 19:45:35;;;;;;;19.10;5.97;;;;;;;;;;10502396;28;20305;-73
2022/03/23 19:50:35;;;;;;;15.50;6.00;;;;;;;;;;10502058;28;20016;-74
2022/03/23 19:55:36;;;;;;;12.82;6.13;;;;;;;;;;10504623;28;20273;-72
2022/03/23 20:00:36;;;;;;;17.15;6.68;;;;;;;;;;10516113;28;20151;-71
2022/03/23 20:05:38;;;;;;;21.58;8.15;;;;;;;;;;10491551;28;20490;-69
2022/03/23 20:10:38;;;;;;;27.73;8.73;;;;;;;;;;10512209;28;20035;-70
2022/03/23 20:15:38;;;;;;;15.70;8.30;;;;;;;;;;10491801;28;20043;-70
2022/03/23 20:20:39;;;;;;;14.23;7.43;;;;;;;;;;10475243;28;20336;-71
2022/03/23 20:25:39;;;;;;;18.75;8.38;;;;;;;;;;10475044;28;20348;-74
2022/03/23 20:30:40;;;;;;;18.13;8.98;;;;;;;;;;10494074;28;20017;-69
2022/03/23 20:35:41;;;;;;;16.17;7.13;;;;;;;;;;10473990;28;20079;-71
2022/03/23 20:40:41;;;;;;;16.05;8.00;;;;;;;;;;10503712;28;20513;-72
2022/03/23 20:50:46;;;;;;;19.13;8.50;;;;;;;;;;10493896;28;20689;-70
2022/03/23 20:55:47;;;;;;;16.73;9.20;;;;;;;;;;10473963;28;20112;-74
2022/03/23 21:00:47;;;;;;;19.20;9.80;;;;;;;;;;10491333;28;20020;-69
2022/03/23 21:05:49;;;;;;;22.23;8.80;;;;;;;;;;10474006;28;20078;-71
2022/03/23 21:10:50;;;;;;;29.65;12.30;;;;;;;;;;10477374;28;20012;-70
2022/03/23 21:15:51;;;;;;;23.40;10.73;;;;;;;;;;10516113;28;20024;-73
2022/03/23 21:20:51;;;;;;;19.40;10.33;;;;;;;;;;10514522;28;20042;-70
2022/03/23 21:25:51;;;;;;;18.05;10.13;;;;;;;;;;10515557;28;20027;-70
2022/03/23 21:30:52;;;;;;;16.15;8.68;;;;;;;;;;10515746;28;20020;-72
2022/03/23 21:35:53;;;;;;;23.67;9.73;;;;;;;;;;10515632;28;20040;-72
2022/03/23 21:40:54;;;;;;;32.17;12.38;;;;;;;;;;10516368;28;20084;-74
2022/03/23 21:45:54;;;;;;;24.87;9.53;;;;;;;;;;10515816;28;20048;-71
2022/03/23 21:50:55;;;;;;;21.27;11.20;;;;;;;;;;10502793;28;20020;-70
2022/03/23 21:55:55;;;;;;;27.20;11.23;;;;;;;;;;10492613;28;20103;-70
2022/03/23 22:00:55;;;;;;;24.48;12.52;;;;;;;;;;10492477;28;20553;-71
2022/03/23 22:05:56;;;;;;;37.85;14.57;;;;;;;;;;10473771;28;20024;-70
2022/03/23 22:10:57;;;;;;;27.75;13.30;;;;;;;;;;10473452;28;20028;-69
2022/03/23 22:15:57;;;;;;;37.35;16.63;;;;;;;;;;10456605;28;20027;-69
2022/03/23 22:21:03;;;;;;;39.17;19.38;;;;;;;;;;10473151;28;20021;-70
2022/03/23 22:26:03;;;;;;;36.85;19.77;;;;;;;;;;10490717;28;20031;-74
2022/03/23 22:31:09;;;;;;;40.85;19.60;;;;;;;;;;10489849;28;20021;-70
2022/03/23 22:36:10;;;;;;;57.25;20.63;;;;;;;;;;10456316;28;20032;-70
2022/03/23 22:41:10;;;;;;;43.70;19.35;;;;;;;;;;10472280;28;20017;-69
2022/03/23 22:46:11;;;;;;;41.47;19.30;;;;;;;;;;10471693;28;20053;-71
2022/03/23 22:51:11;;;;;;;36.35;19.83;;;;;;;;;;10472222;28;20265;-71
2022/03/23 22:56:11;;;;;;;38.83;21.90;;;;;;;;;;10471896;28;20028;-72
2022/03/23 23:01:18;;;;;;;43.70;22.97;;;;;;;;;;10471728;28;20020;-70
2022/03/23 23:06:18;;;;;;;46.15;24.08;;;;;;;;;;10471378;28;20025;-71
2022/03/23 23:11:25;;;;;;;39.08;19.48;;;;;;;;;;10471344;28;20018;-71
2022/03/23 23:16:26;;;;;;;50.38;19.83;;;;;;;;;;10471417;28;20021;-77
2022/03/23 23:21:27;;;;;;;46.53;21.65;;;;;;;;;;10470924;28;20434;-71
2022/03/23 23:26:28;;;;;;;51.80;20.20;;;;;;;;;;10470204;28;20027;-72
2022/03/23 23:31:28;;;;;;;42.65;20.63;;;;;;;;;;10470540;28;20021;-71
2022/03/23 23:36:33;;;;;;;52.70;20.35;;;;;;;;;;10470783;28;20016;-71
2022/03/23 23:41:33;;;;;;;46.65;20.55;;;;;;;;;;10453315;28;20024;-74
2022/03/23 23:46:33;;;;;;;43.78;19.42;;;;;;;;;;10469966;28;20102;-70
2022/03/23 23:51:34;;;;;;;34.83;19.75;;;;;;;;;;10488080;28;20032;-71
2022/03/23 23:56:34;;;;;;;44.90;20.00;;;;;;;;;;10470032;28;20020;-70
